Home > Products > Valid Products > TAF

000
FTUS45 KABQ 031700 RRA
TAFTCC
TAF
KTCC 031758Z 0318/0418 23012G22KT P6SM BKN150
     FM032100 22015G25KT P6SM VCTS SCT090CB
     FM040000 23015G25KT P6SM FEW090
     FM040300 21010KT P6SM FEW090
     FM040500 21010KT P6SM VCTS SCT090CB
      TEMPO 0405/0407 VRB25G35KT -TSRA BKN090CB
     FM040800 22009KT P6SM BKN150=



000
FTUS45 KABQ 031700 RRA
TAFLVS
TAF
KLVS 031758Z 0318/0418 23009KT P6SM BKN150
     FM032000 21014G22KT P6SM VCTS BKN080CB
      TEMPO 0320/0322 VRB25G35KT -TSRA
     FM040000 29008KT P6SM BKN090
     FM040600 24007KT P6SM SCT150
     FM041600 18015G25KT P6SM SCT100=



000
FTUS45 KABQ 031700 RRA
TAFROW
TAF
KROW 031758Z 0318/0418 15006KT P6SM FEW150
     FM032100 17013G23KT P6SM VCTS BKN100CB
      TEMPO 0323/0324 VRB20G30KT -TSRA BKN090CB
     FM040000 16011KT P6SM VCSH SCT100 BKN130
     FM040700 15009KT P6SM BKN100
     FM041500 15018G26KT P6SM SCT025=



000
FTUS45 KABQ 031700 RRA
TAFABQ
TAF
KABQ 031758Z 0318/0418 24006KT P6SM FEW100 FEW200
     FM040000 23011KT P6SM VCTS SCT080CB BKN150
      TEMPO 0400/0402 VRB25G35KT -TSRA BKN080CB
     FM040300 31007KT P6SM SCT100 BKN200
     FM040800 VRB05KT P6SM FEW070 SCT120=



000
FTUS45 KABQ 031700 RRA
TAFGUP
TAF
KGUP 031758Z 0318/0418 20007KT P6SM FEW060
     FM032000 24012KT P6SM VCTS BKN090CB
     FM040000 24010KT P6SM VCSH BKN070
     FM040300 VRB03KT P6SM VCSH BKN060
     FM041600 23007KT P6SM FEW060=



000
FTUS45 KABQ 031700 RRA
TAFFMN
TAF
KFMN 031758Z 0318/0418 25005KT P6SM SCT090
     FM032000 27011G18KT P6SM FEW060 FEW090
     FM040300 20007KT P6SM VCSH BKN090
     FM040900 VRB05KT P6SM -SHRA BKN060
     FM041400 VRB05KT P6SM BKN080=



000
FTUS45 KABQ 031700 RRA
TAFSAF
TAF
KSAF 031758Z 0318/0418 01006KT P6SM FEW120 BKN200
     FM031900 25010G16KT P6SM FEW070 SCT200
     FM040000 32009KT P6SM VCSH BKN080
     FM040300 36007KT P6SM BKN090
     FM040900 01007KT P6SM FEW090=



000
FTUS45 KABQ 031700 RRA
TAFABQ
TAF
KABQ 031758Z 0318/0418 24006KT P6SM FEW100 FEW200
     FM040000 23011KT P6SM VCTS SCT080CB BKN150
      TEMPO 0400/0402 VRB25G35KT -TSRA BKN080CB
     FM040300 31007KT P6SM SCT100 BKN200
     FM040800 VRB05KT P6SM FEW070 SCT120=



000
FTUS45 KABQ 031700 RRA
TAFTCC
TAF
KTCC 031758Z 0318/0418 23012G22KT P6SM BKN150
     FM032100 22015G25KT P6SM VCTS SCT090CB
     FM040000 23015G25KT P6SM FEW090
     FM040300 21010KT P6SM FEW090
     FM040500 21010KT P6SM VCTS SCT090CB
      TEMPO 0405/0407 VRB25G35KT -TSRA BKN090CB
     FM040800 22009KT P6SM BKN150=



000
FTUS45 KABQ 031700 RRA
TAFROW
TAF
KROW 031758Z 0318/0418 15006KT P6SM FEW150
     FM032100 17013G23KT P6SM VCTS BKN100CB
      TEMPO 0323/0324 VRB20G30KT -TSRA BKN090CB
     FM040000 16011KT P6SM VCSH SCT100 BKN130
     FM040700 15009KT P6SM BKN100
     FM041500 15018G26KT P6SM SCT025=



000
FTUS45 KABQ 031700 RRA
TAFFMN
TAF
KFMN 031758Z 0318/0418 25005KT P6SM SCT090
     FM032000 27011G18KT P6SM FEW060 FEW090
     FM040300 20007KT P6SM VCSH BKN090
     FM040900 VRB05KT P6SM -SHRA BKN060
     FM041400 VRB05KT P6SM BKN080=



000
FTUS45 KABQ 031700 RRA
TAFSAF
TAF
KSAF 031758Z 0318/0418 01006KT P6SM FEW120 BKN200
     FM031900 25010G16KT P6SM FEW070 SCT200
     FM040000 32009KT P6SM VCSH BKN080
     FM040300 36007KT P6SM BKN090
     FM040900 01007KT P6SM FEW090=



000
FTUS45 KABQ 031700 RRA
TAFLVS
TAF
KLVS 031758Z 0318/0418 23009KT P6SM BKN150
     FM032000 21014G22KT P6SM VCTS BKN080CB
      TEMPO 0320/0322 VRB25G35KT -TSRA
     FM040000 29008KT P6SM BKN090
     FM040600 24007KT P6SM SCT150
     FM041600 18015G25KT P6SM SCT100=



000
FTUS45 KABQ 031700 RRA
TAFGUP
TAF
KGUP 031758Z 0318/0418 20007KT P6SM FEW060
     FM032000 24012KT P6SM VCTS BKN090CB
     FM040000 24010KT P6SM VCSH BKN070
     FM040300 VRB03KT P6SM VCSH BKN060
     FM041600 23007KT P6SM FEW060=



000
FTUS45 KABQ 031100
TAFROW
TAF
KROW 031134Z 0312/0412 VRB05KT P6SM SCT140
     FM031700 14008KT P6SM BKN090
     FM032000 15013G23KT P6SM VCTS BKN100CB
     FM040000 16011G18KT P6SM VCSH BKN100
     FM040300 15010KT P6SM BKN100=



000
FTUS45 KABQ 031100
TAFFMN
TAF
KFMN 031134Z 0312/0412 08007KT P6SM BKN110
     FM032000 27011G18KT P6SM VCSH BKN120
     FM040200 31010KT P6SM BKN100=



000
FTUS45 KABQ 031100
TAFGUP
TAF
KGUP 031134Z 0312/0412 VRB03KT P6SM BKN100
     FM032000 24012KT P6SM VCTS BKN090CB
     FM040000 24010KT P6SM VCSH BKN100
     FM040300 VRB03KT P6SM BKN100=



000
FTUS45 KABQ 031100
TAFLVS
TAF
KLVS 031134Z 0312/0412 VRB05KT P6SM SCT120
     FM031500 23010KT P6SM BKN110
     FM032100 21014G22KT P6SM VCTS BKN090CB
     FM040100 19007KT P6SM BKN100
     FM040600 VRB05KT P6SM BKN140=



000
FTUS45 KABQ 031100
TAFFMN
TAF
KFMN 031134Z 0312/0412 08007KT P6SM BKN110
     FM032000 27011G18KT P6SM VCSH BKN120
     FM040200 31010KT P6SM BKN100=



000
FTUS45 KABQ 031100
TAFROW
TAF
KROW 031134Z 0312/0412 VRB05KT P6SM SCT140
     FM031700 14008KT P6SM BKN090
     FM032000 15013G23KT P6SM VCTS BKN100CB
     FM040000 16011G18KT P6SM VCSH BKN100
     FM040300 15010KT P6SM BKN100=



000
FTUS45 KABQ 031100
TAFTCC
TAF
KTCC 031134Z 0312/0412 25009KT P6SM SCT150
     FM031900 23012G22KT P6SM SCT100
     FM032100 22015G25KT P6SM VCTS BKN090CB
      TEMPO 0321/0324 VRB20G35KT -TSRA BKN060CB
     FM040000 20015G25KT P6SM VCSH BKN100
     FM040300 20010KT P6SM BKN100=



000
FTUS45 KABQ 031100
TAFLVS
TAF
KLVS 031134Z 0312/0412 VRB05KT P6SM SCT120
     FM031500 23010KT P6SM BKN110
     FM032100 21014G22KT P6SM VCTS BKN090CB
     FM040100 19007KT P6SM BKN100
     FM040600 VRB05KT P6SM BKN140=



000
FTUS45 KABQ 031100
TAFSAF
TAF
KSAF 031134Z 0312/0412 01007KT P6SM SCT120 BKN200
     FM031900 26009G16KT P6SM BKN120
     FM032200 26012KT P6SM VCSH BKN080
     FM040200 36007KT P6SM BKN090=



000
FTUS45 KABQ 031100
TAFABQ
TAF
KABQ 031134Z 0312/0412 VRB05KT P6SM SCT120 BKN200
     FM032100 24010KT P6SM VCSH BKN090
     FM040200 VRB05KT P6SM BKN100=



000
FTUS45 KABQ 031100
TAFGUP
TAF
KGUP 031134Z 0312/0412 VRB03KT P6SM BKN100
     FM032000 24012KT P6SM VCTS BKN090CB
     FM040000 24010KT P6SM VCSH BKN100
     FM040300 VRB03KT P6SM BKN100=



000
FTUS45 KABQ 031100
TAFTCC
TAF
KTCC 031134Z 0312/0412 25009KT P6SM SCT150
     FM031900 23012G22KT P6SM SCT100
     FM032100 22015G25KT P6SM VCTS BKN090CB
      TEMPO 0321/0324 VRB20G35KT -TSRA BKN060CB
     FM040000 20015G25KT P6SM VCSH BKN100
     FM040300 20010KT P6SM BKN100=



000
FTUS45 KABQ 031100
TAFABQ
TAF
KABQ 031134Z 0312/0412 VRB05KT P6SM SCT120 BKN200
     FM032100 24010KT P6SM VCSH BKN090
     FM040200 VRB05KT P6SM BKN100=



000
FTUS45 KABQ 031100
TAFSAF
TAF
KSAF 031134Z 0312/0412 01007KT P6SM SCT120 BKN200
     FM031900 26009G16KT P6SM BKN120
     FM032200 26012KT P6SM VCSH BKN080
     FM040200 36007KT P6SM BKN090=



000
FTUS45 KABQ 030500
TAFTCC
TAF
KTCC 030520Z 0306/0406 22007KT P6SM VCSH BKN100
     FM030800 24007KT P6SM BKN150
     FM031500 23012G20KT P6SM SCT100=



000
FTUS45 KABQ 030500
TAFSAF
TAF
KSAF 030520Z 0306/0406 36006KT P6SM BKN120
     FM031900 26009G16KT P6SM BKN090
     FM032200 29012KT P6SM VCSH OVC080
     FM040400 13006KT P6SM BKN090=



000
FTUS45 KABQ 030500
TAFGUP
TAF
KGUP 030520Z 0306/0406 VRB03KT P6SM BKN100
     FM032000 24012KT P6SM VCSH BKN090
     FM040300 05008KT P6SM BKN100=



000
FTUS45 KABQ 030500
TAFROW
TAF
KROW 030520Z 0306/0406 20007KT P6SM SCT140
     FM031700 16012G17KT P6SM BKN090=



000
FTUS45 KABQ 030500
TAFLVS
TAF
KLVS 030520Z 0306/0406 16005KT P6SM BKN120
     FM031500 25010G16KT P6SM SCT090
     FM032000 28014G20KT P6SM VCTS BKN090CB
     FM040300 12008KT P6SM OVC090=



000
FTUS45 KABQ 030500
TAFABQ
TAF
KABQ 030520Z 0306/0406 12005KT P6SM BKN120
     FM031600 25006KT P6SM SCT090
     FM032200 32009KT P6SM BKN090=



000
FTUS45 KABQ 030500
TAFFMN
TAF
KFMN 030520Z 0306/0406 24007KT P6SM BKN110
     FM030800 08007KT P6SM BKN120
     FM032000 27011G18KT P6SM BKN100=



000
FTUS45 KABQ 030400 AAA
TAFTCC
TAF AMD
KTCC 030454Z 0305/0324 24012KT P6SM VCSH OVC090
     FM030600 22007KT P6SM BKN120
     FM030900 24006KT P6SM SCT150=



000
FTUS45 KABQ 022300
TAFGUP
TAF
KGUP 022320Z 0300/0324 33015KT P6SM -SHRA OVC090
      TEMPO 0300/0301 VRB20G30KT -TSRA BKN060CB
     FM030100 06010KT P6SM VCSH OVC100
     FM030200 27006KT P6SM BKN120
     FM030600 VRB04KT P6SM BKN140=



000
FTUS45 KABQ 022300
TAFGUP
TAF
KGUP 022320Z 0300/0324 33015KT P6SM -SHRA OVC090
      TEMPO 0300/0301 VRB20G30KT -TSRA BKN060CB
     FM030100 06010KT P6SM VCSH OVC100
     FM030200 27006KT P6SM BKN120
     FM030600 VRB04KT P6SM BKN140=



000
FTUS45 KABQ 022300
TAFTCC
TAF
KTCC 022320Z 0300/0324 28020G30KT P6SM VCTS BKN080CB BKN120
     FM030200 31011KT P6SM VCSH BKN090
     FM030300 26008KT P6SM BKN120
     FM030600 22007KT P6SM SCT150=



000
FTUS45 KABQ 022300
TAFROW
TAF
KROW 022320Z 0300/0324 16012G18KT P6SM SCT090
     FM030200 23008KT P6SM SCT120=



000
FTUS45 KABQ 022300
TAFABQ
TAF
KABQ 022320Z 0300/0324 33015KT P6SM VCSH BKN070 BKN100
     FM030300 36009KT P6SM BKN120
     FM030700 VRB03KT P6SM BKN140
     FM031200 12005KT P6SM SCT150=



000
FTUS45 KABQ 022300
TAFSAF
TAF
KSAF 022320Z 0300/0324 25015KT P6SM VCSH BKN080
     FM030300 28006KT P6SM BKN090
     FM030600 36006KT P6SM BKN140
     FM031900 24009KT P6SM BKN090=



000
FTUS45 KABQ 022300
TAFLVS
TAF
KLVS 022320Z 0300/0324 28014G22KT P6SM VCSH BKN070 OVC100
      TEMPO 0300/0302 -SHRA
     FM030300 32007KT P6SM BKN100
     FM031700 25010KT P6SM BKN090=



000
FTUS45 KABQ 022300
TAFROW
TAF
KROW 022320Z 0300/0324 16012G18KT P6SM SCT090
     FM030200 23008KT P6SM SCT120=



000
FTUS45 KABQ 022300
TAFFMN
TAF
KFMN 022320Z 0300/0324 23014KT P6SM VCSH BKN100
     FM030200 19009KT P6SM BKN110
     FM030800 08007KT P6SM SCT140=



000
FTUS45 KABQ 022300
TAFLVS
TAF
KLVS 022320Z 0300/0324 28014G22KT P6SM VCSH BKN070 OVC100
      TEMPO 0300/0302 -SHRA
     FM030300 32007KT P6SM BKN100
     FM031700 25010KT P6SM BKN090=



000
FTUS45 KABQ 022300
TAFABQ
TAF
KABQ 022320Z 0300/0324 33015KT P6SM VCSH BKN070 BKN100
     FM030300 36009KT P6SM BKN120
     FM030700 VRB03KT P6SM BKN140
     FM031200 12005KT P6SM SCT150=



000
FTUS45 KABQ 022300
TAFFMN
TAF
KFMN 022320Z 0300/0324 23014KT P6SM VCSH BKN100
     FM030200 19009KT P6SM BKN110
     FM030800 08007KT P6SM SCT140=



000
FTUS45 KABQ 022300
TAFTCC
TAF
KTCC 022320Z 0300/0324 28020G30KT P6SM VCTS BKN080CB BKN120
     FM030200 31011KT P6SM VCSH BKN090
     FM030300 26008KT P6SM BKN120
     FM030600 22007KT P6SM SCT150=



000
FTUS45 KABQ 022300
TAFSAF
TAF
KSAF 022320Z 0300/0324 25015KT P6SM VCSH BKN080
     FM030300 28006KT P6SM BKN090
     FM030600 36006KT P6SM BKN140
     FM031900 24009KT P6SM BKN090=



000
FTUS45 KABQ 022200 AAB
TAFSAF
TAF AMD
KSAF 022224Z 0222/0318 29012G20KT P6SM VCSH BKN090
      TEMPO 0222/0224 VRB18G35KT 5SM -TSRA OVC080CB
     FM030000 30011KT P6SM VCSH OVC080
     FM030300 36006KT P6SM BKN080
     FM031700 24009KT P6SM BKN090=



000
FTUS45 KABQ 022200 AAB
TAFSAF
TAF AMD
KSAF 022224Z 0222/0318 29012G20KT P6SM VCSH BKN090
      TEMPO 0222/0224 VRB18G35KT 5SM -TSRA OVC080CB
     FM030000 30011KT P6SM VCSH OVC080
     FM030300 36006KT P6SM BKN080
     FM031700 24009KT P6SM BKN090=



000
FTUS45 KABQ 022200 AAD
TAFGUP
TAF AMD
KGUP 022222Z 0222/0318 33012KT P6SM -SHRA BKN090
      TEMPO 0222/0224 5SM TSRA OVC080CB
     FM030000 08006KT P6SM VCSH BKN100
     FM030200 14005KT P6SM BKN120=



000
FTUS45 KABQ 022200 AAD
TAFGUP
TAF AMD
KGUP 022222Z 0222/0318 33012KT P6SM -SHRA BKN090
      TEMPO 0222/0224 5SM TSRA OVC080CB
     FM030000 08006KT P6SM VCSH BKN100
     FM030200 14005KT P6SM BKN120=



000
FTUS45 KABQ 022100 AAC
TAFGUP
TAF AMD
KGUP 022140Z 0222/0318 20011G19KT P6SM VCTS BKN090CB
     FM030200 14005KT P6SM BKN120=



000
FTUS45 KABQ 022100 AAB
TAFGUP
TAF AMD
KGUP 022140Z 0222/0318 20011G19KT P6SM TS BKN090CB
     FM030200 14005KT P6SM BKN120=



000
FTUS45 KABQ 022100 AAB
TAFABQ
TAF AMD
KABQ 022122Z 0221/0318 32020G32KT P6SM VCSH BKN090
     FM030000 33011KT P6SM VCSH BKN080
     FM030300 36009KT P6SM OVC080
     FM030700 VRB03KT P6SM BKN100=



000
FTUS45 KABQ 022100 AAA
TAFSAF
TAF AMD
KSAF 022114Z 0221/0318 29012G20KT P6SM VCTS BKN090CB
     FM022300 30011KT P6SM VCSH OVC080
     FM030300 36006KT P6SM BKN080
     FM031700 24009KT P6SM BKN090=



000
FTUS45 KABQ 022100 AAA
TAFGUP
TAF AMD
KGUP 022113Z 0221/0318 23012G20KT P6SM VCSH BKN100
     FM030200 14005KT P6SM BKN120=



000
FTUS45 KABQ 022100 AAA
TAFFMN
TAF AMD
KFMN 022112Z 0221/0318 25011G18KT P6SM VCSH BKN100
     FM030200 19009KT P6SM BKN100
     FM030800 08007KT P6SM BKN120=



000
FTUS45 KABQ 022100 AAA
TAFTCC
TAF AMD
KTCC 022105Z 0221/0318 21012G22KT P6SM SCT120
     FM022300 29020G30KT 6SM -TSRA OVC060CB
     FM030100 31011KT P6SM VCSH OVC070
     FM030300 22008KT P6SM BKN120=



000
FTUS45 KABQ 022000 AAA
TAFABQ
TAF AMD
KABQ 022002Z 0220/0318 28009KT P6SM VCSH BKN070
      TEMPO 0220/0223 28020G35KT 6SM -TSRA OVC045CB
     FM030000 31011KT P6SM VCSH BKN060
     FM030300 36009KT P6SM OVC080
     FM030700 VRB03KT P6SM BKN100=



000
FTUS45 KABQ 022000 AAA
TAFABQ
TAF AMD
KABQ 022002Z 0220/0318 28009KT P6SM VCSH BKN070
      TEMPO 0220/0223 28020G35KT 6SM -TSRA OVC045CB
     FM030000 31011KT P6SM VCSH BKN060
     FM030300 36009KT P6SM OVC080
     FM030700 VRB03KT P6SM BKN100=



000
FTUS45 KABQ 021800 AAA
TAFLVS
TAF AMD
KLVS 021846Z 0219/0318 23016G26KT P6SM VCTS BKN080CB
     FM022000 25014G22KT P6SM VCSH OVC070
     FM030200 32007KT P6SM BKN080
     FM031700 25010KT P6SM BKN100=



000
FTUS45 KABQ 021800 AAA
TAFLVS
TAF AMD
KLVS 021846Z 0219/0318 23016G26KT P6SM VCTS BKN080CB
     FM022000 25014G22KT P6SM VCSH OVC070
     FM030200 32007KT P6SM BKN080
     FM031700 25010KT P6SM BKN100=



000
FTUS45 KABQ 021700
TAFABQ
TAF
KABQ 021729Z 0218/0318 20007KT P6SM SCT090
     FM022100 26012G20KT P6SM VCTS BKN090CB
     FM030000 29012KT P6SM VCSH BKN080
     FM030300 36009KT P6SM OVC080
     FM030700 VRB03KT P6SM BKN100=



000
FTUS45 KABQ 021700
TAFTCC
TAF
KTCC 021729Z 0218/0318 22017G27KT P6SM BKN200
     FM022300 24015G25KT P6SM VCTS BKN100CB
     FM030300 22010KT P6SM BKN120=



000
FTUS45 KABQ 021700
TAFROW
TAF
KROW 021729Z 0218/0318 17014G22KT P6SM BKN150
     FM030300 17009KT P6SM SCT120=



000
FTUS45 KABQ 021700
TAFFMN
TAF
KFMN 021729Z 0218/0318 24009KT P6SM VCSH SCT100
     FM022100 28012G20KT P6SM BKN100
     FM030200 19009KT P6SM BKN100
     FM030800 08007KT P6SM BKN120=



000
FTUS45 KABQ 021700
TAFGUP
TAF
KGUP 021729Z 0218/0318 23008KT P6SM SCT120
     FM022000 24012G20KT P6SM VCSH BKN100
     FM030200 14005KT P6SM BKN120=



000
FTUS45 KABQ 021700
TAFLVS
TAF
KLVS 021729Z 0218/0318 23009KT P6SM VCSH BKN100
     FM022000 25014G22KT P6SM VCTS BKN080CB
     FM030000 28012KT P6SM VCSH OVC070
     FM030300 32006KT P6SM BKN090
     FM031700 25010KT P6SM BKN100=



000
FTUS45 KABQ 021700
TAFSAF
TAF
KSAF 021729Z 0218/0318 22008KT P6SM SCT090
     FM022000 26013G23KT P6SM VCTS BKN080CB
     FM022300 30011KT P6SM VCSH OVC080
     FM030300 36006KT P6SM BKN080
     FM031700 24009KT P6SM BKN090=



000
FTUS45 KABQ 021700
TAFROW
TAF
KROW 021729Z 0218/0318 17014G22KT P6SM BKN150
     FM030300 17009KT P6SM SCT120=



000
FTUS45 KABQ 021700
TAFGUP
TAF
KGUP 021729Z 0218/0318 23008KT P6SM SCT120
     FM022000 24012G20KT P6SM VCSH BKN100
     FM030200 14005KT P6SM BKN120=



000
FTUS45 KABQ 021700
TAFSAF
TAF
KSAF 021729Z 0218/0318 22008KT P6SM SCT090
     FM022000 26013G23KT P6SM VCTS BKN080CB
     FM022300 30011KT P6SM VCSH OVC080
     FM030300 36006KT P6SM BKN080
     FM031700 24009KT P6SM BKN090=



000
FTUS45 KABQ 021700
TAFLVS
TAF
KLVS 021729Z 0218/0318 23009KT P6SM VCSH BKN100
     FM022000 25014G22KT P6SM VCTS BKN080CB
     FM030000 28012KT P6SM VCSH OVC070
     FM030300 32006KT P6SM BKN090
     FM031700 25010KT P6SM BKN100=



000
FTUS45 KABQ 021700
TAFTCC
TAF
KTCC 021729Z 0218/0318 22017G27KT P6SM BKN200
     FM022300 24015G25KT P6SM VCTS BKN100CB
     FM030300 22010KT P6SM BKN120=



000
FTUS45 KABQ 021700
TAFABQ
TAF
KABQ 021729Z 0218/0318 20007KT P6SM SCT090
     FM022100 26012G20KT P6SM VCTS BKN090CB
     FM030000 29012KT P6SM VCSH BKN080
     FM030300 36009KT P6SM OVC080
     FM030700 VRB03KT P6SM BKN100=



000
FTUS45 KABQ 021700
TAFFMN
TAF
KFMN 021729Z 0218/0318 24009KT P6SM VCSH SCT100
     FM022100 28012G20KT P6SM BKN100
     FM030200 19009KT P6SM BKN100
     FM030800 08007KT P6SM BKN120=



000
FTUS45 KABQ 021100
TAFABQ
TAF
KABQ 021126Z 0212/0312 VRB05KT P6SM SCT120
     FM021800 24007KT P6SM SCT120
     FM022200 25013G23KT P6SM VCSH BKN120
     FM030200 33007KT P6SM BKN120
     FM030800 09006KT P6SM SCT120=



000
FTUS45 KABQ 021100
TAFGUP
TAF
KGUP 021126Z 0212/0312 VRB04KT P6SM SCT120
     FM022000 24010G20KT P6SM VCSH FEW070 BKN110
     FM030200 VRB04KT P6SM SCT120=



000
FTUS45 KABQ 021100
TAFLVS
TAF
KLVS 021126Z 0212/0312 VRB05KT P6SM SCT120
     FM021600 20010KT P6SM FEW100
     FM022000 25013G23KT P6SM VCTS BKN090CB
     FM022300 27013G23KT P6SM VCSH BKN100
     FM030100 32008KT P6SM BKN150=



000
FTUS45 KABQ 021100
TAFFMN
TAF
KFMN 021126Z 0212/0312 09008KT P6SM BKN150
     FM021900 28010G18KT P6SM FEW070 SCT110
     FM030200 19009KT P6SM SCT070 BKN140
     FM030800 09005KT P6SM BKN150=



000
FTUS45 KABQ 021100
TAFROW
TAF
KROW 021126Z 0212/0312 16009KT P6SM SCT200
     FM021800 16013G22KT P6SM SCT120
     FM030200 17010KT P6SM SCT120=



000
FTUS45 KABQ 021100
TAFTCC
TAF
KTCC 021126Z 0212/0312 22010KT P6SM BKN150
     FM021600 22012G22KT P6SM SCT120
     FM022300 24015G25KT P6SM VCTS BKN100CB
     FM030300 20010KT P6SM BKN120=



000
FTUS45 KABQ 021100
TAFSAF
TAF
KSAF 021126Z 0212/0312 01008KT P6SM FEW100
     FM021800 25008KT P6SM SCT110
     FM022100 26011G20KT P6SM VCTS BKN090CB
     FM030100 30010KT P6SM VCSH BKN100
     FM030400 35006KT P6SM BKN150=



000
FTUS45 KABQ 020500
TAFGUP
TAF
KGUP 020528Z 0206/0306 VRB04KT P6SM SCT120
     FM022000 24010G20KT P6SM VCSH FEW070 BKN110=



000
FTUS45 KABQ 020500
TAFLVS
TAF
KLVS 020528Z 0206/0306 20006KT P6SM VCSH SCT080 BKN110
      TEMPO 0206/0208 VRB15G25KT -SHRA BKN080
     FM020900 14007KT P6SM SCT100
     FM021600 20010KT P6SM FEW100
     FM021900 21013G23KT P6SM VCTS BKN120CB=



000
FTUS45 KABQ 020500
TAFSAF
TAF
KSAF 020528Z 0206/0306 16009KT P6SM SCT120
     FM021000 01008KT P6SM FEW100
     FM021800 25008KT P6SM SCT110
     FM022100 26011G20KT P6SM VCTS BKN110CB=



000
FTUS45 KABQ 020500
TAFROW
TAF
KROW 020528Z 0206/0306 18007KT P6SM SCT200
     FM021800 16013G22KT P6SM SCT120=



000
FTUS45 KABQ 020500
TAFABQ
TAF
KABQ 020528Z 0206/0306 24006KT P6SM SCT080 BKN120
     FM020800 VRB04KT P6SM SCT120
     FM021000 09005KT P6SM FEW120
     FM021800 24007KT P6SM SCT120
     FM022200 25013G23KT P6SM VCSH BKN120=



000
FTUS45 KABQ 020500
TAFFMN
TAF
KFMN 020528Z 0206/0306 25010G17KT P6SM BKN150
     FM020800 VRB04KT P6SM SCT120
     FM021000 09008KT P6SM FEW120
     FM021900 28010G18KT P6SM FEW070 BKN110=



000
FTUS45 KABQ 020500
TAFTCC
TAF
KTCC 020528Z 0206/0306 20012KT P6SM BKN150
     FM021800 22012G22KT P6SM SCT120
     FM022300 24015G25KT P6SM VCTS BKN120CB=



000
FTUS45 KABQ 020300 AAB
TAFABQ
TAF AMD
KABQ 020346Z 0204/0224 05014G23KT P6SM SCT070 BKN150
     FM020500 22008KT P6SM BKN150
     FM020600 VRB04KT P6SM SCT120
     FM020900 09005KT P6SM FEW120
     FM021800 25005KT P6SM SCT120=



000
FTUS45 KABQ 020100 AAA
TAFABQ
TAF AMD
KABQ 020159Z 0202/0224 25010G18KT P6SM VCSH FEW080 SCT150
     FM020330 27008KT P6SM BKN150
     FM020600 VRB04KT P6SM SCT120
     FM020900 09005KT P6SM FEW120
     FM021800 25005KT P6SM SCT120=



000
FTUS45 KABQ 020100 AAA
TAFSAF
TAF AMD
KSAF 020159Z 0202/0224 12010G20KT P6SM BKN110
     FM020400 12007KT P6SM SCT100
     FM021200 01008KT P6SM FEW100
     FM021800 25008KT P6SM SCT110
     FM022100 26011G20KT P6SM VCTS BKN110CB=



000
FTUS45 KABQ 020100 AAA
TAFGUP
TAF AMD
KGUP 020101Z 0201/0224 21008G16KT P6SM VCTS BKN120CB
      TEMPO 0201/0202 VRB15G25KT -TSRA OVC100CB
     FM020200 19007KT P6SM BKN110
     FM020800 VRB04KT P6SM SCT120
     FM022000 22010G20KT P6SM VCSH FEW070 BKN110=



000
FTUS45 KABQ 012300
TAFFMN
TAF
KFMN 012322Z 0200/0224 27010G20KT P6SM SCT120
     FM020200 VRB04KT P6SM BKN120
     FM021000 09008KT P6SM SCT120
     FM021900 29010G18KT P6SM FEW070 BKN110=



000
FTUS45 KABQ 012300
TAFLVS
TAF
KLVS 012322Z 0200/0224 18012KT P6SM VCTS SCT080CB BKN110
      TEMPO 0200/0202 VRB20G35KT -TSRA BKN060CB
     FM020300 17010KT P6SM VCSH BKN100
     FM020600 14007KT P6SM SCT120
     FM021800 21012G21KT P6SM VCTS BKN120CB=



000
FTUS45 KABQ 012300
TAFTCC
TAF
KTCC 012322Z 0200/0224 17012G20KT P6SM BKN150
     FM020300 20010KT P6SM BKN150
     FM021800 21012G22KT P6SM SCT120
     FM022300 22015G25KT P6SM VCTS BKN120CB=



000
FTUS45 KABQ 012300
TAFABQ
TAF
KABQ 012322Z 0200/0224 25007KT P6SM FEW080 SCT150
     FM020200 29008KT P6SM BKN150
     FM020600 VRB04KT P6SM SCT120
     FM020900 09005KT P6SM FEW120
     FM021800 25005KT P6SM SCT120=



000
FTUS45 KABQ 012300
TAFSAF
TAF
KSAF 012322Z 0200/0224 24008G16KT P6SM VCSH BKN110
     FM020200 12006KT P6SM BKN110
     FM021200 01008KT P6SM FEW100
     FM021800 25008KT P6SM SCT110
     FM022100 26011G20KT P6SM VCTS BKN110CB=



000
FTUS45 KABQ 012300
TAFROW
TAF
KROW 012322Z 0200/0224 17011G17KT P6SM SKC
     FM020300 17008KT P6SM SCT150
     FM021800 16013G22KT P6SM SCT120=



000
FTUS45 KABQ 012300
TAFGUP
TAF
KGUP 012322Z 0200/0224 21008G16KT P6SM VCSH BKN110
     FM020200 19007KT P6SM BKN110
     FM020800 VRB04KT P6SM SCT120
     FM022000 22010G20KT P6SM VCSH FEW070 BKN110=



000
FTUS45 KABQ 012300
TAFFMN
TAF
KFMN 012322Z 0200/0224 27010G20KT P6SM SCT120
     FM020200 VRB04KT P6SM BKN120
     FM021000 09008KT P6SM SCT120
     FM021900 29010G18KT P6SM FEW070 BKN110=



000
FTUS45 KABQ 012300
TAFLVS
TAF
KLVS 012322Z 0200/0224 18012KT P6SM VCTS SCT080CB BKN110
      TEMPO 0200/0202 VRB20G35KT -TSRA BKN060CB
     FM020300 17010KT P6SM VCSH BKN100
     FM020600 14007KT P6SM SCT120
     FM021800 21012G21KT P6SM VCTS BKN120CB=



000
FTUS45 KABQ 012300
TAFGUP
TAF
KGUP 012322Z 0200/0224 21008G16KT P6SM VCSH BKN110
     FM020200 19007KT P6SM BKN110
     FM020800 VRB04KT P6SM SCT120
     FM022000 22010G20KT P6SM VCSH FEW070 BKN110=



000
FTUS45 KABQ 012300
TAFABQ
TAF
KABQ 012322Z 0200/0224 25007KT P6SM FEW080 SCT150
     FM020200 29008KT P6SM BKN150
     FM020600 VRB04KT P6SM SCT120
     FM020900 09005KT P6SM FEW120
     FM021800 25005KT P6SM SCT120=



000
FTUS45 KABQ 012300
TAFROW
TAF
KROW 012322Z 0200/0224 17011G17KT P6SM SKC
     FM020300 17008KT P6SM SCT150
     FM021800 16013G22KT P6SM SCT120=



000
FTUS45 KABQ 012300
TAFTCC
TAF
KTCC 012322Z 0200/0224 17012G20KT P6SM BKN150
     FM020300 20010KT P6SM BKN150
     FM021800 21012G22KT P6SM SCT120
     FM022300 22015G25KT P6SM VCTS BKN120CB=



000
FTUS45 KABQ 012300
TAFSAF
TAF
KSAF 012322Z 0200/0224 24008G16KT P6SM VCSH BKN110
     FM020200 12006KT P6SM BKN110
     FM021200 01008KT P6SM FEW100
     FM021800 25008KT P6SM SCT110
     FM022100 26011G20KT P6SM VCTS BKN110CB=



000
FTUS45 KABQ 012100 AAA
TAFGUP
TAF AMD
KGUP 012131Z 0122/0218 23010G20KT P6SM VCSH BKN110
     FM020200 19007KT P6SM BKN110
     FM020800 VRB04KT P6SM SCT120=



000
FTUS45 KABQ 011900 AAB
TAFLVS
TAF AMD
KLVS 011944Z 0120/0218 19012G21KT P6SM VCTS SCT070CB BKN110
      TEMPO 0120/0122 VRB20G35KT -TSRA BKN070CB
     FM012300 21012G20KT P6SM BKN110
     FM020300 17008KT P6SM SCT150=



000
FTUS45 KABQ 011900 AAA
TAFLVS
TAF AMD
KLVS 011904Z 0119/0218 16015G25KT P6SM VCTS SCT080CB BKN110
     FM012100 19012G21KT P6SM VCTS SCT070CB BKN110
     FM012300 21012G20KT P6SM BKN110
     FM020300 17008KT P6SM SCT150=



000
FTUS45 KABQ 011900 AAA
TAFLVS
TAF AMD
KLVS 011904Z 0119/0218 16015G25KT P6SM VCTS SCT080CB BKN110
     FM012100 19012G21KT P6SM VCTS SCT070CB BKN110
     FM012300 21012G20KT P6SM BKN110
     FM020300 17008KT P6SM SCT150=



000
FTUS45 KABQ 011700
TAFFMN
TAF
KFMN 011725Z 0118/0218 13007KT P6SM SCT250
     FM012000 28010G21KT P6SM SCT120
     FM020200 VRB05KT P6SM BKN120
     FM021200 09008KT P6SM SCT120=



000
FTUS45 KABQ 011700
TAFGUP
TAF
KGUP 011725Z 0118/0218 VRB03KT P6SM SCT250
     FM011900 24008KT P6SM SCT110
     FM012200 27010G16KT P6SM VCSH BKN110
     FM020200 19007KT P6SM BKN110
     FM020800 VRB04KT P6SM SCT120=



000
FTUS45 KABQ 011700
TAFROW
TAF
KROW 011725Z 0118/0218 VRB06KT P6SM SCT200
     FM012000 16010G15KT P6SM FEW130
     FM020300 17008KT P6SM SCT120
     FM021500 16010KT P6SM SCT150=



000
FTUS45 KABQ 011700
TAFLVS
TAF
KLVS 011725Z 0118/0218 14008KT P6SM SCT100
     FM012000 19012G21KT P6SM VCTS SCT080CB BKN110
     FM012300 21012G20KT P6SM BKN110
     FM020300 17008KT P6SM SCT150=



000
FTUS45 KABQ 011700
TAFTCC
TAF
KTCC 011725Z 0118/0218 13008KT P6SM FEW150
     FM012000 18011G21KT P6SM SCT120
     FM020300 20010KT P6SM BKN150=



000
FTUS45 KABQ 011700
TAFABQ
TAF
KABQ 011725Z 0118/0218 33006KT P6SM FEW100 BKN250
     FM012000 26008KT P6SM SCT120
     FM020200 VRB05KT P6SM BKN150=



000
FTUS45 KABQ 011700
TAFSAF
TAF
KSAF 011725Z 0118/0218 23010KT P6SM FEW100 BKN250
     FM012200 25012G19KT P6SM VCSH BKN120
     FM020300 35007KT P6SM BKN120=



000
FTUS45 KABQ 011100
TAFSAF
TAF
KSAF 011121Z 0112/0212 01007KT P6SM BKN250
     FM011800 23008KT P6SM FEW120 BKN250
     FM012200 25012G19KT P6SM VCSH BKN120
     FM020300 35007KT P6SM BKN120=



000
FTUS45 KABQ 011100
TAFROW
TAF
KROW 011121Z 0112/0212 VRB06KT P6SM SCT250
     FM012000 15010G15KT P6SM SCT130
     FM020300 17008KT P6SM SCT130=



000
FTUS45 KABQ 011100
TAFLVS
TAF
KLVS 011121Z 0112/0212 VRB06KT P6SM SCT250
     FM011800 11008KT P6SM FEW090 SCT250
     FM012100 19012G21KT P6SM VCTS BKN110CB
     FM020000 19008KT P6SM BKN110=



000
FTUS45 KABQ 011100
TAFABQ
TAF
KABQ 011121Z 0112/0212 35006KT P6SM SCT250
     FM012000 25008KT P6SM SCT140 SCT200
     FM020200 VRB05KT P6SM BKN150=



000
FTUS45 KABQ 011100
TAFTCC
TAF
KTCC 011121Z 0112/0212 VRB05KT P6SM FEW250
     FM011600 15010KT P6SM FEW100 SCT200
     FM012000 18011G21KT P6SM SCT110 SCT200
     FM020400 20010KT P6SM BKN110=



000
FTUS45 KABQ 011100
TAFFMN
TAF
KFMN 011121Z 0112/0212 08008KT P6SM BKN250
     FM012000 28011G21KT P6SM BKN120
     FM020200 VRB05KT P6SM BKN120=



000
FTUS45 KABQ 011100
TAFGUP
TAF
KGUP 011121Z 0112/0212 VRB03KT P6SM BKN250
     FM011900 27008KT P6SM FEW110 BKN250
     FM012200 27010G16KT P6SM VCSH BKN110
     FM020200 19007KT P6SM BKN110=



000
FTUS45 KABQ 010500
TAFROW
TAF
KROW 010532Z 0106/0206 17008KT P6SM SCT120
     FM012000 15012G21KT P6SM SCT120=



000
FTUS45 KABQ 010500
TAFFMN
TAF
KFMN 010532Z 0106/0206 08008KT P6SM BKN200
     FM011800 27007KT P6SM SCT120
     FM012100 28013G21KT P6SM BKN120=



000
FTUS45 KABQ 010500
TAFSAF
TAF
KSAF 010532Z 0106/0206 12010KT P6SM SCT120
     FM011000 01007KT P6SM FEW120
     FM011800 22008KT P6SM BKN120
     FM012100 25012G19KT P6SM VCTS BKN120CB=



000
FTUS45 KABQ 010500
TAFLVS
TAF
KLVS 010532Z 0106/0206 16007KT P6SM SCT100
     FM010900 05007KT P6SM FEW110
     FM011800 11008KT P6SM SCT110
     FM012100 19012G21KT P6SM VCTS BKN100CB=



000
FTUS45 KABQ 010500
TAFABQ
TAF
KABQ 010532Z 0106/0206 10008KT P6SM FEW120
     FM011400 VRB04KT P6SM SCT120
     FM011900 25006KT P6SM BKN120
     FM012300 23010G18KT P6SM BKN120=



000
FTUS45 KABQ 010500
TAFGUP
TAF
KGUP 010532Z 0106/0206 VRB03KT P6SM BKN200
     FM011800 25008KT P6SM SCT120
     FM012100 27011G19KT P6SM BKN120=



000
FTUS45 KABQ 010500
TAFTCC
TAF
KTCC 010532Z 0106/0206 17007KT P6SM FEW080 SCT110
     FM011200 02010KT P6SM SCT100
     FM011600 12008KT P6SM FEW080
     FM012000 16013G21KT P6SM SCT100=



000
FTUS45 KABQ 302300
TAFTCC
TAF
KTCC 302335Z 0100/0124 13009KT P6SM SCT120
     FM010200 17008KT P6SM SCT120
     FM011200 02010KT P6SM SCT100
     FM011500 09008KT P6SM FEW080
     FM011800 16013G21KT P6SM SCT100=



000
FTUS45 KABQ 302300
TAFLVS
TAF
KLVS 302335Z 0100/0124 17010G17KT P6SM VCTS SCT090CB BKN120
      TEMPO 0100/0102 VRB15G25KT -SHRA SCT050 OVC090
     FM010200 14006KT P6SM SCT100
     FM010800 04007KT P6SM FEW110
     FM011700 11008KT P6SM SCT110
     FM012000 18012G21KT P6SM VCTS BKN100CB=



000
FTUS45 KABQ 302300
TAFROW
TAF
KROW 302335Z 0100/0124 17010KT P6SM SCT120
     FM011000 VRB04KT P6SM FEW100
     FM011600 17008KT P6SM SCT110
     FM012000 18012G21KT P6SM SCT120=



000
FTUS45 KABQ 302300
TAFABQ
TAF
KABQ 302335Z 0100/0124 18008KT P6SM SCT120
     FM010600 11006KT P6SM SCT250
     FM011200 02005KT P6SM SCT120
     FM011900 25006KT P6SM BKN120
     FM012300 20010G18KT P6SM BKN120=



000
FTUS45 KABQ 302300
TAFGUP
TAF
KGUP 302335Z 0100/0124 23010KT P6SM SCT120
     FM010200 VRB03KT P6SM FEW120
     FM011800 25008KT P6SM SCT120
     FM012100 27011G19KT P6SM BKN120=



000
FTUS45 KABQ 302300
TAFSAF
TAF
KSAF 302335Z 0100/0124 16010KT P6SM SCT110
     FM010200 VRB04KT P6SM FEW110
     FM010900 36008KT P6SM SCT120
     FM011800 22008KT P6SM BKN120
     FM012100 25012G19KT P6SM VCTS BKN120CB=



000
FTUS45 KABQ 302300
TAFSAF
TAF
KSAF 302335Z 0100/0124 16010KT P6SM SCT110
     FM010200 VRB04KT P6SM FEW110
     FM010900 36008KT P6SM SCT120
     FM011800 22008KT P6SM BKN120
     FM012100 25012G19KT P6SM VCTS BKN120CB=



000
FTUS45 KABQ 302300
TAFTCC
TAF
KTCC 302335Z 0100/0124 13009KT P6SM SCT120
     FM010200 17008KT P6SM SCT120
     FM011200 02010KT P6SM SCT100
     FM011500 09008KT P6SM FEW080
     FM011800 16013G21KT P6SM SCT100=



000
FTUS45 KABQ 302300
TAFROW
TAF
KROW 302335Z 0100/0124 17010KT P6SM SCT120
     FM011000 VRB04KT P6SM FEW100
     FM011600 17008KT P6SM SCT110
     FM012000 18012G21KT P6SM SCT120=



000
FTUS45 KABQ 302300
TAFLVS
TAF
KLVS 302335Z 0100/0124 17010G17KT P6SM VCTS SCT090CB BKN120
      TEMPO 0100/0102 VRB15G25KT -SHRA SCT050 OVC090
     FM010200 14006KT P6SM SCT100
     FM010800 04007KT P6SM FEW110
     FM011700 11008KT P6SM SCT110
     FM012000 18012G21KT P6SM VCTS BKN100CB=



000
FTUS45 KABQ 302300
TAFFMN
TAF
KFMN 302335Z 0100/0124 28011G18KT P6SM FEW110
     FM010200 VRB05KT P6SM FEW120
     FM010800 08008KT P6SM BKN200
     FM011800 27007KT P6SM SCT120
     FM012100 28013G21KT P6SM BKN120=



000
FTUS45 KABQ 302300
TAFGUP
TAF
KGUP 302335Z 0100/0124 23010KT P6SM SCT120
     FM010200 VRB03KT P6SM FEW120
     FM011800 25008KT P6SM SCT120
     FM012100 27011G19KT P6SM BKN120=



000
FTUS45 KABQ 302300
TAFFMN
TAF
KFMN 302335Z 0100/0124 28011G18KT P6SM FEW110
     FM010200 VRB05KT P6SM FEW120
     FM010800 08008KT P6SM BKN200
     FM011800 27007KT P6SM SCT120
     FM012100 28013G21KT P6SM BKN120=



000
FTUS45 KABQ 302300
TAFABQ
TAF
KABQ 302335Z 0100/0124 18008KT P6SM SCT120
     FM010600 11006KT P6SM SCT250
     FM011200 02005KT P6SM SCT120
     FM011900 25006KT P6SM BKN120
     FM012300 20010G18KT P6SM BKN120=



000
FTUS45 KABQ 301900 AAA
TAFFMN
TAF AMD
KFMN 301909Z 3019/0118 28013G20KT P6SM FEW110 SCT250
     FM010200 VRB05KT P6SM FEW120 SCT250
     FM010800 08008KT P6SM BKN250=



    US Dept of Commerce
    National Oceanic and Atmospheric Administration
    National Weather Service
    1325 East West Highway
    Silver Spring, MD 20910
    Page Author: NWS Internet Services Team
Disclaimer
Information Quality
Credits
Glossary
Privacy Policy
Freedom of Information Act (FOIA)
About Us
Career Opportunities